createdAt,value
2022-11-10T00:01:16.089Z,74.25
2022-11-10T00:04:23.836Z,73.16
2022-11-10T00:07:30.930Z,72.77
2022-11-10T00:11:00.283Z,72.38
2022-11-10T00:14:25.463Z,71.78
2022-11-10T00:17:33.890Z,71.28
2022-11-10T00:20:41.484Z,70.84
2022-11-10T00:23:51.015Z,70.44
2022-11-10T00:26:58.190Z,69.68
2022-11-10T00:30:05.769Z,69.08
2022-11-10T00:33:13.510Z,68.78
2022-11-10T00:36:20.820Z,67.68
2022-11-10T00:39:28.220Z,67.31
2022-11-10T00:42:38.700Z,67.00
2022-11-10T00:45:47.836Z,66.49
2022-11-10T00:48:54.743Z,65.76
2022-11-10T00:52:01.641Z,66.34
2022-11-10T00:55:09.004Z,66.40
2022-11-10T00:58:16.816Z,66.29
2022-11-10T01:01:28.372Z,66.38
2022-11-10T01:04:36.279Z,66.14
2022-11-10T01:07:44.532Z,66.40
2022-11-10T01:10:51.967Z,65.98
2022-11-10T01:13:59.653Z,65.54
2022-11-10T01:17:06.850Z,65.13
2022-11-10T01:20:14.260Z,65.36
2022-11-10T01:23:21.397Z,64.88
2022-11-10T01:26:29.280Z,64.99
2022-11-10T01:29:36.207Z,64.97
2022-11-10T01:32:43.923Z,64.80
2022-11-10T01:35:51.113Z,64.80
2022-11-10T01:38:59.117Z,64.90
2022-11-10T01:42:06.109Z,64.38
2022-11-10T01:45:55.638Z,64.23
2022-11-10T01:49:04.260Z,63.28
2022-11-10T01:52:15.528Z,64.07
2022-11-10T01:55:25.715Z,63.68
2022-11-10T01:58:40.888Z,63.64
2022-11-10T02:01:50.773Z,63.15
2022-11-10T02:04:58.609Z,63.19
2022-11-10T02:08:07.091Z,62.98
2022-11-10T02:11:16.326Z,62.96
2022-11-10T02:14:24.262Z,62.19
2022-11-10T02:17:32.037Z,62.43
2022-11-10T02:20:39.985Z,62.18
2022-11-10T02:23:54.781Z,61.99
2022-11-10T02:27:01.480Z,61.66
2022-11-10T02:30:09.919Z,61.50
2022-11-10T02:33:20.851Z,61.71
2022-11-10T02:36:28.798Z,61.40
2022-11-10T02:39:36.159Z,61.15
2022-11-10T02:42:43.481Z,60.98
2022-11-10T02:45:50.060Z,60.06
2022-11-10T02:48:57.568Z,60.50
2022-11-10T02:52:05.162Z,60.17
2022-11-10T02:55:12.321Z,59.82
2022-11-10T02:58:19.418Z,59.88
2022-11-10T03:01:26.882Z,59.57
2022-11-10T03:04:34.606Z,59.48
2022-11-10T03:07:42.147Z,58.97
2022-11-10T03:10:49.256Z,58.78
2022-11-10T03:14:02.929Z,58.38
2022-11-10T03:17:10.559Z,58.29
2022-11-10T03:20:18.774Z,57.86
2022-11-10T03:23:26.528Z,58.05
2022-11-10T03:26:33.367Z,57.51
2022-11-10T03:29:41.076Z,57.35
2022-11-10T03:32:48.333Z,57.19
2022-11-10T03:35:55.991Z,57.55
2022-11-10T03:39:02.907Z,57.82
2022-11-10T03:42:10.069Z,57.61
2022-11-10T03:45:17.980Z,57.24
2022-11-10T03:48:25.649Z,57.33
2022-11-10T03:51:32.862Z,57.36
2022-11-10T03:54:40.062Z,57.12
2022-11-10T03:57:47.028Z,56.84
2022-11-10T04:00:55.929Z,56.84
2022-11-10T04:04:03.021Z,56.63
2022-11-10T04:07:32.634Z,56.72
2022-11-10T04:10:40.090Z,56.96
2022-11-10T04:14:07.577Z,56.67
2022-11-10T04:17:15.653Z,55.85
2022-11-10T04:20:22.864Z,55.74
2022-11-10T04:23:37.165Z,55.64
2022-11-10T04:26:45.037Z,54.89
2022-11-10T04:29:53.665Z,54.74
2022-11-10T04:33:01.429Z,53.98
2022-11-10T04:36:09.252Z,56.11
2022-11-10T04:39:16.505Z,57.24
2022-11-10T04:42:23.561Z,57.71
2022-11-10T04:45:31.139Z,57.71
2022-11-10T04:48:39.056Z,58.05
2022-11-10T04:51:46.647Z,58.28
2022-11-10T04:54:54.204Z,58.32
2022-11-10T04:58:01.167Z,59.02
2022-11-10T05:01:08.570Z,59.63
2022-11-10T05:04:16.527Z,60.08
2022-11-10T05:07:23.335Z,59.79
2022-11-10T05:10:31.393Z,60.71
2022-11-10T05:13:38.912Z,63.20
2022-11-10T05:16:46.036Z,66.23
2022-11-10T05:19:53.278Z,68.83
2022-11-10T05:23:18.525Z,68.55
2022-11-10T05:26:25.899Z,70.00
2022-11-10T05:29:33.940Z,69.23
2022-11-10T05:32:41.856Z,69.87
2022-11-10T05:35:53.429Z,71.14
2022-11-10T05:39:01.288Z,72.59
2022-11-10T05:42:08.357Z,71.62
2022-11-10T05:45:15.982Z,70.95
2022-11-10T05:48:23.200Z,71.55
2022-11-10T05:51:30.436Z,71.30
2022-11-10T05:54:38.325Z,70.24
2022-11-10T05:57:47.589Z,69.08
2022-11-10T06:00:55.367Z,68.33
2022-11-10T06:04:03.579Z,67.37
2022-11-10T06:07:10.961Z,67.51
2022-11-10T06:10:18.325Z,67.69
2022-11-10T06:13:27.814Z,67.51
2022-11-10T06:16:38.817Z,66.94
2022-11-10T06:19:45.753Z,67.00
2022-11-10T06:23:08.931Z,66.54
2022-11-10T06:26:17.357Z,65.66
2022-11-10T06:29:26.909Z,66.08
2022-11-10T06:32:36.192Z,66.10
2022-11-10T06:35:45.383Z,66.07
2022-11-10T06:38:52.947Z,66.49
2022-11-10T06:42:00.463Z,66.85
2022-11-10T06:45:07.855Z,66.98
2022-11-10T06:48:18.986Z,67.43
2022-11-10T06:51:26.302Z,67.09
2022-11-10T06:54:33.061Z,65.49
2022-11-10T06:57:41.752Z,64.32
2022-11-10T07:00:50.188Z,64.39
2022-11-10T07:04:18.548Z,64.27
2022-11-10T07:07:25.002Z,64.50
2022-11-10T07:10:32.460Z,64.44
2022-11-10T07:13:39.532Z,65.49
2022-11-10T07:16:46.904Z,65.48
2022-11-10T07:19:53.303Z,65.25
2022-11-10T07:23:05.924Z,65.94
2022-11-10T07:26:13.942Z,66.32
2022-11-10T07:29:21.105Z,66.41
2022-11-10T07:32:29.099Z,65.19
2022-11-10T07:35:36.692Z,65.62
2022-11-10T07:38:44.082Z,65.44
2022-11-10T07:41:52.847Z,65.23
2022-11-10T07:45:00.787Z,65.41
2022-11-10T07:48:09.045Z,66.30
2022-11-10T07:51:15.789Z,65.31
2022-11-10T07:54:23.426Z,64.63
2022-11-10T07:57:30.512Z,64.22
2022-11-10T08:00:38.627Z,62.69
2022-11-10T08:03:48.729Z,62.55
2022-11-10T08:06:55.742Z,62.63
2022-11-10T08:10:03.251Z,62.08
2022-11-10T08:13:12.675Z,61.80
2022-11-10T08:16:19.753Z,61.43
2022-11-10T08:19:26.536Z,61.44
2022-11-10T08:22:34.267Z,61.29
2022-11-10T08:25:41.629Z,61.43
2022-11-10T08:28:48.084Z,61.05
2022-11-10T08:31:55.309Z,61.10
2022-11-10T08:35:02.355Z,60.72
2022-11-10T08:38:16.123Z,61.29
2022-11-10T08:41:23.396Z,61.12
2022-11-10T08:44:31.360Z,61.09
2022-11-10T08:47:38.067Z,61.09
2022-11-10T08:50:45.132Z,61.15
2022-11-10T08:53:52.508Z,61.48
2022-11-10T08:56:59.733Z,61.41
2022-11-10T09:00:07.686Z,61.65
2022-11-10T09:03:19.988Z,61.89
2022-11-10T09:06:51.129Z,61.94
2022-11-10T09:10:06.616Z,61.88
2022-11-10T09:13:17.044Z,62.13
2022-11-10T09:16:24.037Z,61.91
2022-11-10T09:19:32.352Z,61.53
2022-11-10T09:22:39.681Z,60.84
2022-11-10T09:25:51.983Z,61.97
2022-11-10T09:29:00.177Z,61.93
2022-11-10T09:32:07.379Z,61.98
2022-11-10T09:35:14.657Z,62.22
2022-11-10T09:38:23.339Z,62.12
2022-11-10T09:41:31.983Z,62.12
2022-11-10T09:44:45.508Z,62.39
2022-11-10T09:48:21.238Z,62.14
2022-11-10T09:51:34.133Z,62.13
2022-11-10T09:54:46.777Z,62.87
2022-11-10T09:57:56.425Z,62.70
2022-11-10T10:01:31.286Z,63.07
2022-11-10T10:04:54.202Z,63.03
2022-11-10T10:08:08.673Z,63.34
2022-11-10T10:11:28.428Z,63.44
2022-11-10T10:14:48.099Z,63.38
2022-11-10T10:18:01.701Z,63.70
2022-11-10T10:21:31.780Z,63.76
2022-11-10T10:24:39.613Z,63.58
2022-11-10T10:27:48.496Z,63.62
2022-11-10T10:31:03.098Z,64.01
2022-11-10T10:34:21.727Z,64.16
2022-11-10T10:37:31.765Z,63.53
2022-11-10T10:40:41.248Z,63.67
2022-11-10T10:43:51.115Z,63.76
2022-11-10T10:47:02.118Z,63.43
2022-11-10T10:50:34.561Z,63.27
2022-11-10T10:53:48.843Z,63.26
2022-11-10T10:57:26.474Z,63.45
2022-11-10T11:00:34.472Z,63.60
2022-11-10T11:03:51.125Z,64.03
2022-11-10T11:07:02.322Z,63.65
2022-11-10T11:10:27.132Z,63.55
2022-11-10T11:13:34.757Z,63.46
2022-11-10T11:16:56.365Z,64.47
2022-11-10T11:20:04.732Z,64.03
2022-11-10T11:23:50.710Z,65.08
2022-11-10T11:27:07.213Z,65.16
2022-11-10T11:30:22.849Z,65.52
2022-11-10T11:34:04.819Z,65.36
2022-11-10T11:37:36.817Z,65.72
2022-11-10T11:41:08.188Z,65.94
2022-11-10T11:44:19.776Z,65.64
2022-11-10T11:47:50.062Z,66.45
2022-11-10T11:51:05.263Z,67.07
2022-11-10T11:54:27.519Z,67.41
2022-11-10T11:57:40.592Z,67.44
2022-11-10T12:01:29.741Z,67.48
2022-11-10T12:04:47.088Z,69.23
2022-11-10T12:08:09.848Z,69.17
2022-11-10T12:11:26.178Z,68.40
2022-11-10T12:15:05.267Z,68.74
2022-11-10T12:18:32.622Z,69.16
2022-11-10T12:22:17.631Z,69.36
2022-11-10T12:25:57.837Z,70.14
2022-11-10T12:29:05.652Z,69.91
2022-11-10T12:32:22.290Z,70.31
2022-11-10T12:35:36.041Z,70.61
2022-11-10T12:39:12.198Z,70.71
2022-11-10T12:42:28.618Z,71.16
2022-11-10T12:45:46.485Z,71.57
2022-11-10T12:49:06.972Z,71.70
2022-11-10T12:52:19.008Z,71.57
2022-11-10T12:55:49.028Z,71.90
2022-11-10T12:59:20.949Z,72.02
2022-11-10T13:02:44.176Z,72.25
2022-11-10T13:05:57.637Z,72.08
2022-11-10T13:09:06.018Z,72.16
2022-11-10T13:12:26.917Z,72.43
2022-11-10T13:15:38.819Z,72.14
2022-11-10T13:18:45.474Z,72.20
2022-11-10T13:21:52.933Z,71.85
2022-11-10T13:25:36.799Z,72.28
2022-11-10T13:28:49.629Z,72.07
2022-11-10T13:31:59.069Z,72.32
2022-11-10T13:35:30.467Z,72.68
2022-11-10T13:38:39.520Z,72.62
2022-11-10T13:42:06.011Z,73.01
2022-11-10T13:45:31.565Z,73.24
2022-11-10T13:49:15.282Z,73.47
2022-11-10T13:52:45.553Z,73.97
2022-11-10T13:56:02.582Z,73.57
2022-11-10T13:59:23.546Z,74.04
2022-11-10T14:02:39.937Z,74.61
2022-11-10T14:05:59.474Z,74.21
2022-11-10T14:09:42.340Z,74.72
2022-11-10T14:12:57.188Z,74.17
2022-11-10T14:16:05.595Z,74.74
2022-11-10T14:19:15.975Z,74.95
2022-11-10T14:22:44.171Z,75.38
2022-11-10T14:26:00.776Z,75.31
2022-11-10T14:29:22.764Z,75.34
2022-11-10T14:32:30.311Z,75.61
2022-11-10T14:35:58.181Z,75.80
2022-11-10T14:39:07.732Z,76.08
2022-11-10T14:42:19.561Z,75.88
2022-11-10T14:45:30.427Z,75.94
2022-11-10T14:48:40.467Z,76.03
2022-11-10T14:51:48.978Z,76.44
2022-11-10T14:54:56.428Z,76.62
2022-11-10T14:58:15.791Z,76.39
2022-11-10T15:01:36.959Z,76.40
2022-11-10T15:04:46.036Z,76.47
2022-11-10T15:07:56.491Z,76.41
2022-11-10T15:11:05.490Z,76.64
2022-11-10T15:14:33.639Z,76.64
2022-11-10T15:17:52.147Z,76.83
2022-11-10T15:21:05.704Z,76.70
2022-11-10T15:24:12.947Z,76.27
2022-11-10T15:27:27.037Z,76.78
2022-11-10T15:30:34.907Z,76.31
2022-11-10T15:33:49.579Z,76.70
2022-11-10T15:37:32.355Z,76.37
2022-11-10T15:40:42.676Z,76.52
2022-11-10T15:43:50.661Z,76.98
2022-11-10T15:46:59.986Z,77.46
2022-11-10T15:50:10.816Z,77.45
2022-11-10T15:53:25.788Z,78.03
2022-11-10T15:56:33.495Z,77.83
2022-11-10T15:59:40.661Z,77.11
2022-11-10T16:02:48.525Z,77.12
2022-11-10T16:05:56.871Z,77.64
2022-11-10T16:09:04.395Z,77.38
2022-11-10T16:12:18.581Z,77.87
2022-11-10T16:15:26.223Z,78.09
2022-11-10T16:18:33.821Z,78.24
2022-11-10T16:21:41.014Z,78.35
2022-11-10T16:24:48.881Z,78.03
2022-11-10T16:27:55.996Z,78.09
2022-11-10T16:31:03.292Z,77.98
2022-11-10T16:34:18.034Z,78.59
2022-11-10T16:37:26.562Z,78.17
2022-11-10T16:40:33.558Z,78.20
2022-11-10T16:43:43.971Z,78.87
2022-11-10T16:46:56.848Z,78.68
2022-11-10T16:50:12.114Z,78.89
2022-11-10T16:53:25.721Z,79.14
2022-11-10T16:56:33.690Z,79.28
2022-11-10T16:59:40.922Z,78.89
2022-11-10T17:03:01.027Z,79.24
2022-11-10T17:06:15.303Z,79.29
2022-11-10T17:09:26.698Z,79.37
2022-11-10T17:12:36.182Z,79.02
2022-11-10T17:15:43.740Z,79.49
2022-11-10T17:18:51.420Z,79.36
2022-11-10T17:21:59.243Z,79.59
2022-11-10T17:25:11.069Z,79.67
2022-11-10T17:28:19.605Z,79.72
2022-11-10T17:31:27.078Z,79.86
2022-11-10T17:34:34.480Z,79.80
2022-11-10T17:37:49.344Z,79.82
2022-11-10T17:40:58.173Z,79.66
2022-11-10T17:44:05.538Z,80.18
2022-11-10T17:47:12.986Z,80.00
2022-11-10T17:50:24.038Z,79.85
2022-11-10T17:53:31.761Z,80.32
2022-11-10T17:56:38.695Z,80.35
2022-11-10T17:59:46.949Z,80.30
2022-11-10T18:02:57.789Z,80.32
2022-11-10T18:06:08.031Z,80.06
2022-11-10T18:09:15.289Z,80.00
2022-11-10T18:12:27.594Z,80.30
2022-11-10T18:15:35.928Z,80.54
2022-11-10T18:18:43.517Z,80.54
2022-11-10T18:21:56.538Z,80.62
2022-11-10T18:25:11.352Z,80.70
2022-11-10T18:28:18.685Z,80.61
2022-11-10T18:31:25.603Z,80.68
2022-11-10T18:34:33.225Z,80.42
2022-11-10T18:37:40.890Z,80.67
2022-11-10T18:40:47.866Z,81.18
2022-11-10T18:43:55.299Z,81.15
2022-11-10T18:47:02.894Z,81.09
2022-11-10T18:50:10.419Z,81.37
2022-11-10T18:53:16.872Z,81.43
2022-11-10T18:56:24.098Z,81.30
2022-11-10T18:59:31.240Z,81.32
2022-11-10T19:02:38.683Z,81.51
2022-11-10T19:05:55.740Z,81.82
2022-11-10T19:09:06.606Z,81.58
2022-11-10T19:12:14.236Z,81.63
2022-11-10T19:15:22.428Z,81.35
2022-11-10T19:18:32.391Z,81.78
2022-11-10T19:21:40.175Z,81.60
2022-11-10T19:25:06.977Z,81.92
2022-11-10T19:28:16.118Z,81.77
2022-11-10T19:31:25.517Z,81.19
2022-11-10T19:34:32.706Z,81.39
2022-11-10T19:37:40.445Z,81.60
2022-11-10T19:40:48.146Z,81.64
2022-11-10T19:43:56.825Z,81.96
2022-11-10T19:47:04.921Z,81.98
2022-11-10T19:50:11.616Z,81.70
2022-11-10T19:53:18.601Z,81.45
2022-11-10T19:56:30.474Z,81.62
2022-11-10T19:59:54.208Z,81.64
2022-11-10T20:03:02.137Z,81.84
2022-11-10T20:06:12.464Z,81.38
2022-11-10T20:09:19.495Z,81.75
2022-11-10T20:12:26.539Z,81.42
2022-11-10T20:15:33.718Z,81.66
2022-11-10T20:18:41.221Z,81.72
2022-11-10T20:21:49.976Z,81.83
2022-11-10T20:24:57.467Z,81.99
2022-11-10T20:28:07.743Z,81.98
2022-11-10T20:31:23.004Z,81.74
2022-11-10T20:34:31.145Z,82.42
2022-11-10T20:37:38.035Z,82.38
2022-11-10T20:40:45.441Z,82.19
2022-11-10T20:43:53.623Z,82.34
2022-11-10T20:47:01.788Z,82.28
2022-11-10T20:50:14.801Z,82.28
2022-11-10T20:53:23.807Z,82.95
2022-11-10T20:56:32.386Z,82.78
2022-11-10T20:59:40.046Z,82.52
2022-11-10T21:02:46.745Z,82.32
2022-11-10T21:05:57.189Z,82.32
2022-11-10T21:09:07.633Z,82.30
2022-11-10T21:12:35.689Z,82.29
2022-11-10T21:15:45.451Z,82.37
2022-11-10T21:18:56.871Z,82.95
2022-11-10T21:22:06.453Z,82.71
2022-11-10T21:25:14.640Z,82.65
2022-11-10T21:28:21.678Z,83.25
2022-11-10T21:31:31.009Z,83.14
2022-11-10T21:34:38.563Z,83.41
2022-11-10T21:37:45.351Z,83.47
2022-11-10T21:40:52.304Z,83.78
2022-11-10T21:44:00.141Z,83.56
2022-11-10T21:47:07.511Z,84.05
2022-11-10T21:50:14.796Z,84.15
2022-11-10T21:53:22.430Z,84.32
2022-11-10T21:56:29.940Z,84.15
2022-11-10T21:59:37.729Z,84.38
2022-11-10T22:02:46.066Z,84.13
2022-11-10T22:05:53.947Z,84.04
2022-11-10T22:09:03.529Z,84.08
2022-11-10T22:12:33.355Z,83.78
2022-11-10T22:15:59.769Z,83.38
2022-11-10T22:19:10.938Z,83.95
2022-11-10T22:22:21.346Z,83.84
2022-11-10T22:25:28.782Z,84.13
2022-11-10T22:28:35.873Z,84.29
2022-11-10T22:31:42.358Z,84.52
2022-11-10T22:34:49.543Z,84.45
2022-11-10T22:37:57.185Z,84.46
2022-11-10T22:41:23.750Z,84.65
2022-11-10T22:44:32.239Z,84.39
2022-11-10T22:47:58.775Z,84.62
2022-11-10T22:51:07.024Z,84.60
2022-11-10T22:54:18.608Z,84.40
2022-11-10T22:57:26.807Z,84.56
2022-11-10T23:00:34.499Z,84.91
2022-11-10T23:03:42.232Z,84.91
2022-11-10T23:06:56.348Z,84.92
2022-11-10T23:10:03.272Z,85.10
2022-11-10T23:13:10.554Z,85.24
2022-11-10T23:16:22.328Z,85.07
2022-11-10T23:19:29.797Z,85.19
2022-11-10T23:22:37.152Z,84.70
2022-11-10T23:25:44.138Z,83.75
2022-11-10T23:28:52.698Z,84.23
2022-11-10T23:32:00.132Z,84.13
2022-11-10T23:35:07.187Z,84.34
2022-11-10T23:38:15.679Z,84.17
2022-11-10T23:41:27.062Z,84.35
2022-11-10T23:44:35.333Z,84.47
2022-11-10T23:47:43.335Z,84.35
2022-11-10T23:50:51.021Z,83.72
2022-11-10T23:53:58.783Z,83.23
2022-11-10T23:57:06.056Z,82.52
